Terminal Aerodrome Forecast
Issued by NWS Paducah, KY

Home | Current Version | Previous Version | Text Only | Print | Product List | Glossary On
Versions: 1 2 3 4 5 6 7 8 9 10 11 12 13 14 15 16 17 18 19
724
FTUS43 KPAH 211728
TAFPAH
TAF
KPAH 211728Z 2118/2218 19010G17KT P6SM FEW030 SCT250
     FM212300 14003KT P6SM SCT040 BKN150
     FM220800 08003KT 6SM -SHRA BR SCT025 OVC090
     FM221000 05004KT 3SM SHRA BR OVC008
     FM221200 VRB05KT 2SM SHRA BR OVC003=

USA.gov is the U.S. government's official web portal to all federal, state and local government web resources and services.